TimeMST,TemperatureF,Dew PointF,Humidity,Sea Level PressureIn,VisibilityMPH,Wind Direction,Wind SpeedMPH,Gust SpeedMPH,PrecipitationIn,Events,Conditions,WindDirDegrees,DateUTC
12:52 AM,5.0,-0.0,80,30.24,8.0,NNW,6.9,-,N/A,,Clear,340,2013-01-07 07:52:00
1:52 AM,5.0,-0.0,80,30.25,8.0,North,12.7,-,N/A,,Clear,10,2013-01-07 08:52:00
2:52 AM,-0.0,-4.0,83,30.27,6.0,North,9.2,-,N/A,,Clear,10,2013-01-07 09:52:00
3:52 AM,-0.9,-6.0,79,30.30,6.0,NE,8.1,-,N/A,,Haze,40,2013-01-07 10:52:00
4:52 AM,-0.9,-4.0,87,30.29,6.0,Calm,Calm,-,N/A,,Clear,0,2013-01-07 11:52:00
5:52 AM,-5.1,-9.0,83,30.36,5.0,NNE,3.5,-,N/A,,Clear,20,2013-01-07 12:52:00
6:52 AM,-0.9,-7.1,75,30.34,8.0,West,5.8,-,N/A,,Clear,270,2013-01-07 13:52:00
7:52 AM,-4.0,-9.9,76,30.40,6.0,Calm,Calm,-,N/A,,Haze,0,2013-01-07 14:52:00
8:52 AM,8.1,3.0,80,30.36,10.0,NW,3.5,-,N/A,,Clear,310,2013-01-07 15:52:00
9:52 AM,5.0,1.0,84,30.41,5.0,Calm,Calm,-,N/A,,Clear,0,2013-01-07 16:52:00
10:52 AM,12.9,3.0,65,30.40,10.0,NNE,3.5,-,N/A,,Clear,20,2013-01-07 17:52:00
11:52 AM,17.1,5.0,59,30.39,10.0,North,9.2,-,0.00,,Clear,10,2013-01-07 18:52:00
12:52 PM,19.9,6.1,55,30.31,10.0,Calm,Calm,-,0.00,,Clear,0,2013-01-07 19:52:00
1:52 PM,19.9,7.0,57,30.31,10.0,East,9.2,-,N/A,,Clear,80,2013-01-07 20:52:00
2:52 PM,21.0,7.0,55,30.33,10.0,NNE,6.9,-,N/A,,Clear,30,2013-01-07 21:52:00
3:52 PM,19.9,8.1,60,30.33,10.0,North,8.1,-,N/A,,Clear,360,2013-01-07 22:52:00
4:52 PM,19.0,9.0,65,30.35,10.0,NE,4.6,-,N/A,,Clear,50,2013-01-07 23:52:00
5:52 PM,16.0,9.0,74,30.38,10.0,North,6.9,-,N/A,,Clear,350,2013-01-08 00:52:00
6:52 PM,12.0,6.1,77,30.39,9.0,NNW,8.1,-,N/A,,Clear,340,2013-01-08 01:52:00
7:52 PM,14.0,7.0,74,30.40,10.0,NNW,10.4,-,N/A,,Clear,340,2013-01-08 02:52:00
8:52 PM,10.0,5.0,80,30.35,8.0,NW,4.6,-,N/A,,Clear,320,2013-01-08 03:52:00
9:52 PM,8.1,3.0,80,30.39,8.0,ENE,6.9,-,N/A,,Partly Cloudy,70,2013-01-08 04:52:00
10:52 PM,10.9,5.0,77,30.35,8.0,NNW,5.8,-,N/A,,Overcast,330,2013-01-08 05:52:00
11:52 PM,10.0,3.9,76,30.34,8.0,SSE,9.2,-,N/A,,Overcast,150,2013-01-08 06:52:00